Time;durP1;ratioP1;P1;durP2;ratioP2;P2;SDS_P1;SDS_P2;PMS_P1;PMS_P2;Temp;Humidity;BMP_temperature;BMP_pressure;BME280_temperature;BME280_humidity;BME280_pressure;Samples;Min_cycle;Max_cycle;Signal;HPM_P1;HPM_P2
2022/08/29 00:01:30;;;;;;;18.00;7.28;;;;;;;;;;4937460;29;20062;-39
2022/08/29 00:03:56;;;;;;;7.68;6.65;;;;;;;;;;4936983;29;20026;-37
2022/08/29 00:06:22;;;;;;;8.55;7.18;;;;;;;;;;4937024;29;20028;-38
2022/08/29 00:08:48;;;;;;;11.10;7.20;;;;;;;;;;4937200;29;20036;-42
2022/08/29 00:11:13;;;;;;;11.85;7.13;;;;;;;;;;4937188;29;20444;-40
2022/08/29 00:13:39;;;;;;;12.02;7.72;;;;;;;;;;4937047;29;20039;-41
2022/08/29 00:16:05;;;;;;;11.50;8.20;;;;;;;;;;4936927;29;20122;-41
2022/08/29 00:18:31;;;;;;;10.65;7.90;;;;;;;;;;4936900;29;20106;-41
2022/08/29 00:20:57;;;;;;;12.57;7.88;;;;;;;;;;4936797;29;20083;-39
2022/08/29 00:23:22;;;;;;;15.55;8.60;;;;;;;;;;4936801;29;20023;-40
2022/08/29 00:25:48;;;;;;;15.13;8.82;;;;;;;;;;4936679;29;20360;-42
2022/08/29 00:28:14;;;;;;;13.07;8.95;;;;;;;;;;4936690;29;20041;-40
2022/08/29 00:30:39;;;;;;;16.05;9.57;;;;;;;;;;4936652;29;20103;-40
2022/08/29 00:33:05;;;;;;;12.32;9.07;;;;;;;;;;4936736;29;20031;-41
2022/08/29 00:35:34;;;;;;;14.20;9.32;;;;;;;;;;4936412;29;20059;-40
2022/08/29 00:38:02;;;;;;;14.30;9.10;;;;;;;;;;4936473;29;20024;-38
2022/08/29 00:40:31;;;;;;;10.70;8.82;;;;;;;;;;4936492;29;20491;-37
2022/08/29 00:42:57;;;;;;;15.67;9.43;;;;;;;;;;4936482;29;20051;-37
2022/08/29 00:45:23;;;;;;;14.00;9.77;;;;;;;;;;4936547;29;20622;-38
2022/08/29 00:47:56;;;;;;;12.52;9.55;;;;;;;;;;4936211;29;20132;-37
2022/08/29 00:50:30;;;;;;;13.27;9.15;;;;;;;;;;4936336;29;20032;-39
2022/08/29 00:52:57;;;;;;;15.15;9.40;;;;;;;;;;4936456;29;20121;-37
2022/08/29 00:55:26;;;;;;;15.07;9.60;;;;;;;;;;4936372;29;20543;-39
2022/08/29 00:57:58;;;;;;;13.32;9.73;;;;;;;;;;4935679;29;20050;-41
2022/08/29 01:00:26;;;;;;;13.32;9.38;;;;;;;;;;4935967;29;20059;-39
2022/08/29 01:02:53;;;;;;;12.50;9.70;;;;;;;;;;4935998;29;20020;-39
2022/08/29 01:05:19;;;;;;;17.33;10.23;;;;;;;;;;4936225;29;20114;-38
2022/08/29 01:07:46;;;;;;;11.98;9.52;;;;;;;;;;4936204;29;20027;-37
2022/08/29 01:12:14;;;;;;;12.60;9.93;;;;;;;;;;4936113;29;20059;-37
2022/08/29 01:12:58;;;;;;;13.05;9.93;;;;;;;;;;4935780;29;20058;-37
2022/08/29 01:15:25;;;;;;;11.98;9.68;;;;;;;;;;4935877;29;20472;-37
2022/08/29 01:17:53;;;;;;;16.38;9.68;;;;;;;;;;4936108;29;20031;-37
2022/08/29 01:20:21;;;;;;;13.65;9.70;;;;;;;;;;4936049;29;20040;-38
2022/08/29 01:23:35;;;;;;;13.20;9.27;;;;;;;;;;4935751;29;20024;-37
2022/08/29 01:26:02;;;;;;;13.95;9.45;;;;;;;;;;4922904;29;20381;-40
2022/08/29 01:28:33;;;;;;;13.27;10.07;;;;;;;;;;4935632;29;20127;-40
2022/08/29 01:31:05;;;;;;;14.20;10.52;;;;;;;;;;4935937;29;20111;-40
2022/08/29 01:33:47;;;;;;;17.75;10.05;;;;;;;;;;4935488;29;20090;-37
2022/08/29 01:36:17;;;;;;;14.05;10.45;;;;;;;;;;4935558;29;20031;-40
2022/08/29 01:38:42;;;;;;;;;;;;;;;;;;4936322;29;20082;-43
2022/08/29 01:41:09;;;;;;;13.93;9.90;;;;;;;;;;4935462;29;19918;-37
2022/08/29 01:43:42;;;;;;;12.82;10.00;;;;;;;;;;4935711;29;20436;-37
2022/08/29 01:46:10;;;;;;;14.10;10.63;;;;;;;;;;4935464;29;20504;-37
2022/08/29 01:48:38;;;;;;;12.27;10.65;;;;;;;;;;4935207;29;20496;-37
2022/08/29 01:51:04;;;;;;;14.25;10.18;;;;;;;;;;4935352;29;20032;-38
2022/08/29 01:53:30;;;;;;;14.63;9.85;;;;;;;;;;4935293;29;20028;-38
2022/08/29 01:55:55;;;;;;;16.13;10.60;;;;;;;;;;4935362;29;20097;-38
2022/08/29 01:58:21;;;;;;;14.57;10.40;;;;;;;;;;4935521;29;20028;-37
2022/08/29 02:00:47;;;;;;;13.52;10.93;;;;;;;;;;4935218;29;20096;-38
2022/08/29 02:03:12;;;;;;;15.73;10.40;;;;;;;;;;4935259;29;20036;-38
2022/08/29 02:05:38;;;;;;;15.55;10.93;;;;;;;;;;4935471;29;20035;-37
2022/08/29 02:08:04;;;;;;;13.90;10.18;;;;;;;;;;4935478;29;20038;-38
2022/08/29 02:10:29;;;;;;;12.10;9.98;;;;;;;;;;4937010;29;20035;-38
2022/08/29 02:12:56;;;;;;;13.18;10.23;;;;;;;;;;4937923;29;20028;-38
2022/08/29 02:15:22;;;;;;;11.38;9.77;;;;;;;;;;4939068;29;20024;-41
2022/08/29 02:17:47;;;;;;;12.32;10.23;;;;;;;;;;4939283;29;20028;-40
2022/08/29 02:20:13;;;;;;;12.82;10.43;;;;;;;;;;4939245;29;20091;-38
2022/08/29 02:22:39;;;;;;;14.50;10.50;;;;;;;;;;4938928;29;20027;-40
2022/08/29 02:25:40;;;;;;;16.13;10.25;;;;;;;;;;4938920;29;20043;-41
2022/08/29 02:27:52;;;;;;;14.93;10.35;;;;;;;;;;4938709;29;20054;-40
2022/08/29 02:30:18;;;;;;;14.43;10.15;;;;;;;;;;4938862;29;20476;-40
2022/08/29 02:32:44;;;;;;;13.43;10.40;;;;;;;;;;4938731;29;20033;-40
2022/08/29 02:35:09;;;;;;;15.48;11.15;;;;;;;;;;4938736;29;20035;-38
2022/08/29 02:37:35;;;;;;;14.25;10.70;;;;;;;;;;4938990;29;20483;-39
2022/08/29 02:40:02;;;;;;;15.55;10.55;;;;;;;;;;4938655;29;20024;-39
2022/08/29 02:42:28;;;;;;;13.73;10.25;;;;;;;;;;4938569;29;20122;-38
2022/08/29 02:44:53;;;;;;;13.82;10.32;;;;;;;;;;4938914;29;20055;-38
2022/08/29 02:47:19;;;;;;;14.23;10.40;;;;;;;;;;4938517;29;20123;-38
2022/08/29 02:49:44;;;;;;;16.45;11.13;;;;;;;;;;4938523;29;20050;-37
2022/08/29 02:52:10;;;;;;;16.33;10.48;;;;;;;;;;4938454;29;20028;-38
2022/08/29 02:54:36;;;;;;;17.42;10.82;;;;;;;;;;4938356;29;20074;-38
2022/08/29 02:57:02;;;;;;;15.05;11.13;;;;;;;;;;4938365;29;20028;-40
2022/08/29 02:59:28;;;;;;;18.90;10.63;;;;;;;;;;4938361;29;20549;-41
2022/08/29 03:01:54;;;;;;;13.00;10.38;;;;;;;;;;4938543;29;20110;-40
2022/08/29 03:04:20;;;;;;;17.02;11.15;;;;;;;;;;4938490;29;20019;-40
2022/08/29 03:06:45;;;;;;;16.23;10.23;;;;;;;;;;4938134;29;20036;-40
2022/08/29 03:09:11;;;;;;;13.30;10.30;;;;;;;;;;4938376;29;20028;-41
2022/08/29 03:11:36;;;;;;;17.52;10.48;;;;;;;;;;4938107;29;20391;-40
2022/08/29 03:14:02;;;;;;;14.98;10.32;;;;;;;;;;4938001;29;20038;-42
2022/08/29 03:16:28;;;;;;;15.95;10.30;;;;;;;;;;4938059;29;20043;-42
2022/08/29 03:18:54;;;;;;;13.52;10.25;;;;;;;;;;4938044;29;20034;-40
2022/08/29 03:21:21;;;;;;;14.82;10.23;;;;;;;;;;4937254;29;20019;-40
2022/08/29 03:23:48;;;;;;;12.25;9.32;;;;;;;;;;4937929;29;20024;-39
2022/08/29 03:26:14;;;;;;;15.00;10.23;;;;;;;;;;4937892;29;20086;-40
2022/08/29 03:28:40;;;;;;;13.95;10.02;;;;;;;;;;4938078;29;20075;-42
2022/08/29 03:31:06;;;;;;;17.98;10.43;;;;;;;;;;4937772;29;20082;-37
2022/08/29 03:33:31;;;;;;;11.65;9.73;;;;;;;;;;4937694;29;20038;-37
2022/08/29 03:35:57;;;;;;;11.93;9.60;;;;;;;;;;4937658;29;20118;-42
2022/08/29 03:38:22;;;;;;;12.98;9.85;;;;;;;;;;4937657;29;20030;-40
2022/08/29 03:40:48;;;;;;;11.88;9.48;;;;;;;;;;4937573;29;20046;-41
2022/08/29 03:43:13;;;;;;;13.38;9.57;;;;;;;;;;4937489;29;20038;-40
2022/08/29 03:45:39;;;;;;;14.52;9.50;;;;;;;;;;4937449;29;20038;-40
2022/08/29 03:48:05;;;;;;;11.57;8.90;;;;;;;;;;4937243;29;20059;-40
2022/08/29 03:50:30;;;;;;;12.43;8.85;;;;;;;;;;4937332;29;20040;-41
2022/08/29 03:52:56;;;;;;;11.48;8.13;;;;;;;;;;4937314;29;20028;-41
2022/08/29 03:55:21;;;;;;;14.07;9.23;;;;;;;;;;4937541;29;20039;-39
2022/08/29 03:57:47;;;;;;;11.25;8.35;;;;;;;;;;4937310;29;20034;-40
2022/08/29 04:00:16;;;;;;;10.82;8.15;;;;;;;;;;4937521;29;20031;-39
2022/08/29 04:02:45;;;;;;;11.18;8.25;;;;;;;;;;4937227;29;20031;-39
2022/08/29 04:05:11;;;;;;;12.40;8.25;;;;;;;;;;4937427;29;20059;-37
2022/08/29 04:07:48;;;;;;;9.85;7.78;;;;;;;;;;4937426;29;20046;-37
2022/08/29 04:10:21;;;;;;;11.75;8.18;;;;;;;;;;4937136;29;20032;-37
2022/08/29 04:12:47;;;;;;;10.88;8.00;;;;;;;;;;4937387;29;20055;-37
2022/08/29 04:15:13;;;;;;;9.25;7.55;;;;;;;;;;4937201;29;20078;-42
2022/08/29 04:17:39;;;;;;;11.63;8.00;;;;;;;;;;4936939;29;20063;-38
2022/08/29 04:20:06;;;;;;;11.60;8.43;;;;;;;;;;4936741;29;20487;-38
2022/08/29 04:22:34;;;;;;;11.15;8.52;;;;;;;;;;4936900;29;20416;-40
2022/08/29 04:25:00;;;;;;;12.68;7.88;;;;;;;;;;4936759;29;20067;-41
2022/08/29 04:27:26;;;;;;;13.50;8.07;;;;;;;;;;4936738;29;20444;-42
2022/08/29 04:29:51;;;;;;;9.65;7.95;;;;;;;;;;4936887;29;20032;-40
2022/08/29 04:32:18;;;;;;;11.90;8.02;;;;;;;;;;4936494;29;20480;-39
2022/08/29 04:34:44;;;;;;;9.63;7.43;;;;;;;;;;4936668;29;20114;-37
2022/08/29 04:37:09;;;;;;;8.43;6.93;;;;;;;;;;4936607;29;20583;-37
2022/08/29 04:39:35;;;;;;;11.32;7.60;;;;;;;;;;4936648;29;20032;-37
2022/08/29 04:42:00;;;;;;;11.55;7.60;;;;;;;;;;4936474;29;20028;-39
2022/08/29 04:44:26;;;;;;;13.77;8.27;;;;;;;;;;4936376;29;20023;-38
2022/08/29 04:46:51;;;;;;;10.70;7.57;;;;;;;;;;4936235;29;20399;-40
2022/08/29 04:49:17;;;;;;;8.07;6.57;;;;;;;;;;4936375;29;20496;-38
2022/08/29 04:51:42;;;;;;;7.70;6.30;;;;;;;;;;4936305;29;20091;-40
2022/08/29 04:54:08;;;;;;;7.63;6.30;;;;;;;;;;4936142;29;20039;-46
2022/08/29 04:56:36;;;;;;;6.05;5.45;;;;;;;;;;4934971;29;20031;-40
2022/08/29 04:59:01;;;;;;;8.15;6.00;;;;;;;;;;4936385;29;20027;-41
2022/08/29 05:01:27;;;;;;;8.10;6.35;;;;;;;;;;4936391;29;20079;-44
2022/08/29 05:03:54;;;;;;;9.88;5.63;;;;;;;;;;4936083;29;20413;-40
2022/08/29 05:06:21;;;;;;;9.27;6.20;;;;;;;;;;4935933;29;20028;-39
2022/08/29 05:08:46;;;;;;;6.10;5.28;;;;;;;;;;4936206;29;20376;-39
2022/08/29 05:11:15;;;;;;;11.75;5.57;;;;;;;;;;4936141;29;20019;-41
2022/08/29 05:13:43;;;;;;;7.77;5.90;;;;;;;;;;4935974;29;20427;-43
2022/08/29 05:16:12;;;;;;;8.40;5.45;;;;;;;;;;4935722;29;20063;-43
2022/08/29 05:18:38;;;;;;;6.45;5.38;;;;;;;;;;4935791;29;20384;-39
2022/08/29 05:21:04;;;;;;;6.68;5.45;;;;;;;;;;4935718;29;20036;-41
2022/08/29 05:23:30;;;;;;;6.78;5.10;;;;;;;;;;4935648;29;20023;-42
2022/08/29 05:26:01;;;;;;;8.23;5.38;;;;;;;;;;4935715;29;20023;-40
2022/08/29 05:28:28;;;;;;;8.68;6.18;;;;;;;;;;4935924;29;20056;-40
2022/08/29 05:30:54;;;;;;;7.10;5.55;;;;;;;;;;4935655;29;20028;-43
2022/08/29 05:33:20;;;;;;;10.40;4.93;;;;;;;;;;4935527;29;20484;-46
2022/08/29 05:35:46;;;;;;;8.25;5.68;;;;;;;;;;4935550;29;20028;-41
2022/08/29 05:38:13;;;;;;;6.88;5.53;;;;;;;;;;4935810;29;20036;-38
2022/08/29 05:40:40;;;;;;;8.35;6.03;;;;;;;;;;4935721;29;20432;-38
2022/08/29 05:43:06;;;;;;;6.90;4.82;;;;;;;;;;4935522;29;20028;-42
2022/08/29 05:45:31;;;;;;;8.43;4.57;;;;;;;;;;4935123;29;20032;-45
2022/08/29 05:48:02;;;;;;;7.22;5.35;;;;;;;;;;4935280;29;20043;-40
2022/08/29 05:50:27;;;;;;;6.25;5.20;;;;;;;;;;4935568;29;20070;-41
2022/08/29 05:52:53;;;;;;;6.22;4.38;;;;;;;;;;4935326;29;20047;-39
2022/08/29 05:55:18;;;;;;;14.35;4.80;;;;;;;;;;4935213;29;20031;-42
2022/08/29 05:57:44;;;;;;;5.40;4.90;;;;;;;;;;4935526;29;20031;-38
2022/08/29 06:00:11;;;;;;;21.77;5.63;;;;;;;;;;4933876;29;20484;-37
2022/08/29 06:02:37;;;;;;;10.30;5.38;;;;;;;;;;4935283;29;20115;-39
2022/08/29 06:05:03;;;;;;;6.07;4.90;;;;;;;;;;4933905;29;20063;-38
2022/08/29 06:07:30;;;;;;;9.23;5.28;;;;;;;;;;4935148;29;20063;-40
2022/08/29 06:09:55;;;;;;;6.32;5.22;;;;;;;;;;4935139;29;20045;-38
2022/08/29 06:12:22;;;;;;;8.18;4.78;;;;;;;;;;4935185;29;20024;-39
2022/08/29 06:14:48;;;;;;;7.32;4.93;;;;;;;;;;4935005;29;20042;-40
2022/08/29 06:17:13;;;;;;;7.05;4.55;;;;;;;;;;4935030;29;20028;-39
2022/08/29 06:19:39;;;;;;;5.88;4.60;;;;;;;;;;4934849;29;20031;-40
2022/08/29 06:22:07;;;;;;;11.65;4.65;;;;;;;;;;4935320;29;20024;-40
2022/08/29 06:24:33;;;;;;;8.85;4.72;;;;;;;;;;4934968;29;20476;-43
2022/08/29 06:27:00;;;;;;;6.82;4.95;;;;;;;;;;4935131;29;20032;-40
2022/08/29 06:29:28;;;;;;;4.95;4.18;;;;;;;;;;4935280;29;20119;-46
2022/08/29 06:31:58;;;;;;;9.25;4.50;;;;;;;;;;4918314;29;20464;-43
2022/08/29 06:34:23;;;;;;;7.18;4.13;;;;;;;;;;4935079;29;20055;-38
2022/08/29 06:36:50;;;;;;;6.00;4.25;;;;;;;;;;4934880;29;20488;-42
2022/08/29 06:39:17;;;;;;;6.03;3.30;;;;;;;;;;4934705;29;20039;-42
2022/08/29 06:41:43;;;;;;;6.80;4.28;;;;;;;;;;4935021;29;20051;-42
2022/08/29 06:44:09;;;;;;;5.75;3.70;;;;;;;;;;4935121;29;20078;-46
2022/08/29 06:46:45;;;;;;;4.70;3.40;;;;;;;;;;4934473;29;20020;-43
2022/08/29 06:49:13;;;;;;;6.80;3.72;;;;;;;;;;4934748;29;20036;-42
2022/08/29 06:51:42;;;;;;;5.90;3.50;;;;;;;;;;4934861;29;20046;-46
2022/08/29 06:54:10;;;;;;;9.65;3.80;;;;;;;;;;4934708;29;20034;-37
2022/08/29 06:56:35;;;;;;;6.00;3.72;;;;;;;;;;4936640;29;20049;-37
2022/08/29 06:59:01;;;;;;;6.85;3.58;;;;;;;;;;4938523;29;20361;-40
2022/08/29 07:01:26;;;;;;;4.65;3.20;;;;;;;;;;4938200;29;20392;-37
2022/08/29 07:03:53;;;;;;;6.70;3.33;;;;;;;;;;4938126;29;20108;-42
2022/08/29 07:06:19;;;;;;;8.38;3.60;;;;;;;;;;4938166;29;20094;-36
2022/08/29 07:08:45;;;;;;;7.97;3.78;;;;;;;;;;4938117;29;20035;-37
2022/08/29 07:11:11;;;;;;;7.03;2.92;;;;;;;;;;4937908;29;20035;-37
2022/08/29 07:13:38;;;;;;;6.05;2.80;;;;;;;;;;4937869;29;20038;-44
2022/08/29 07:16:11;;;;;;;4.40;2.63;;;;;;;;;;4938054;29;20023;-42
2022/08/29 07:18:38;;;;;;;3.75;2.65;;;;;;;;;;4937965;29;20043;-38
2022/08/29 07:21:05;;;;;;;5.05;2.70;;;;;;;;;;4937825;29;20028;-41
2022/08/29 07:23:31;;;;;;;2.80;2.35;;;;;;;;;;4937717;29;20276;-39
2022/08/29 07:26:09;;;;;;;5.07;2.80;;;;;;;;;;4937767;29;20094;-38
2022/08/29 07:28:35;;;;;;;5.28;3.22;;;;;;;;;;4938202;29;20083;-38
2022/08/29 07:31:02;;;;;;;3.58;2.58;;;;;;;;;;4937856;29;20105;-37
2022/08/29 07:33:28;;;;;;;5.15;2.67;;;;;;;;;;4937582;29;20060;-39
2022/08/29 07:35:53;;;;;;;5.15;2.85;;;;;;;;;;4937601;29;20058;-38
2022/08/29 07:38:20;;;;;;;8.88;2.90;;;;;;;;;;4937567;29;20388;-38
2022/08/29 07:40:46;;;;;;;3.53;2.65;;;;;;;;;;4937503;29;20067;-39
2022/08/29 07:43:12;;;;;;;4.22;2.47;;;;;;;;;;4937558;29;20416;-36
2022/08/29 07:45:38;;;;;;;2.85;2.63;;;;;;;;;;4937420;29;20029;-37
2022/08/29 07:48:04;;;;;;;4.60;2.78;;;;;;;;;;4937196;29;20051;-37
2022/08/29 07:50:30;;;;;;;3.95;2.60;;;;;;;;;;4937643;29;20376;-43
2022/08/29 07:52:56;;;;;;;3.65;2.80;;;;;;;;;;4937346;29;20488;-46
2022/08/29 07:55:21;;;;;;;3.10;2.70;;;;;;;;;;4937229;29;20070;-47
2022/08/29 07:57:50;;;;;;;3.60;2.40;;;;;;;;;;4937215;29;20030;-41
2022/08/29 08:00:16;;;;;;;2.63;2.42;;;;;;;;;;4937200;29;20027;-45
2022/08/29 08:02:42;;;;;;;2.60;2.40;;;;;;;;;;4937470;29;20407;-41
2022/08/29 08:05:08;;;;;;;2.90;2.25;;;;;;;;;;4935891;29;20032;-50
2022/08/29 08:07:33;;;;;;;3.38;2.47;;;;;;;;;;4936816;29;20027;-40
2022/08/29 08:09:59;;;;;;;5.30;2.58;;;;;;;;;;4937075;29;20031;-40
2022/08/29 08:12:25;;;;;;;7.47;2.55;;;;;;;;;;4937225;29;20032;-41
2022/08/29 08:14:51;;;;;;;4.43;2.55;;;;;;;;;;4937125;29;20040;-41
2022/08/29 08:17:17;;;;;;;4.65;2.60;;;;;;;;;;4936913;29;20055;-41
2022/08/29 08:19:43;;;;;;;2.60;2.33;;;;;;;;;;4936853;29;20020;-47
2022/08/29 08:22:09;;;;;;;3.55;2.35;;;;;;;;;;4936782;29;20032;-42
2022/08/29 08:24:34;;;;;;;3.15;2.47;;;;;;;;;;4936804;29;20027;-42
2022/08/29 08:27:00;;;;;;;3.58;2.20;;;;;;;;;;4936703;29;20032;-47
2022/08/29 08:29:26;;;;;;;5.38;2.70;;;;;;;;;;4936748;29;20384;-44
2022/08/29 08:31:51;;;;;;;2.47;2.13;;;;;;;;;;4933984;29;20476;-42
2022/08/29 08:34:18;;;;;;;3.55;2.28;;;;;;;;;;4935415;29;20119;-42
2022/08/29 08:36:44;;;;;;;2.63;2.42;;;;;;;;;;4935424;29;20020;-44
2022/08/29 08:39:12;;;;;;;2.72;2.53;;;;;;;;;;4935080;29;20028;-40
2022/08/29 08:42:03;;;;;;;4.15;2.30;;;;;;;;;;4931459;29;20039;-46
2022/08/29 08:44:40;;;;;;;2.20;2.00;;;;;;;;;;4933981;29;20480;-42
2022/08/29 08:47:09;;;;;;;3.00;2.30;;;;;;;;;;4932207;29;20043;-41
2022/08/29 08:49:52;;;;;;;2.75;2.30;;;;;;;;;;4934851;29;20027;-39
2022/08/29 08:52:29;;;;;;;2.30;2.10;;;;;;;;;;4931222;29;20020;-39
2022/08/29 08:55:00;;;;;;;2.13;1.92;;;;;;;;;;4935083;29;20031;-40
2022/08/29 08:57:34;;;;;;;3.10;1.90;;;;;;;;;;4935033;29;20027;-39
2022/08/29 09:00:00;;;;;;;2.50;2.30;;;;;;;;;;4932887;29;20032;-40
2022/08/29 09:02:57;;;;;;;3.47;2.35;;;;;;;;;;4934801;29;20070;-42
2022/08/29 09:06:00;;;;;;;6.57;2.15;;;;;;;;;;4933038;29;20055;-42
2022/08/29 09:08:34;;;;;;;3.58;2.38;;;;;;;;;;4932145;29;20536;-38
2022/08/29 09:11:25;;;;;;;3.47;2.20;;;;;;;;;;4932691;29;20027;-40
2022/08/29 09:14:11;;;;;;;2.85;2.10;;;;;;;;;;4933780;29;20031;-41
2022/08/29 09:16:45;;;;;;;2.30;1.98;;;;;;;;;;4931628;29;20038;-41
2022/08/29 09:19:13;;;;;;;4.72;1.90;;;;;;;;;;4932566;29;20072;-38
2022/08/29 09:21:54;;;;;;;2.00;1.80;;;;;;;;;;4931943;29;20107;-42
2022/08/29 09:24:46;;;;;;;2.40;1.80;;;;;;;;;;4932463;29;20134;-36
2022/08/29 09:27:21;;;;;;;3.08;2.30;;;;;;;;;;4928717;29;20046;-37
2022/08/29 09:29:48;;;;;;;2.17;1.88;;;;;;;;;;4934442;29;20024;-37
2022/08/29 09:32:14;;;;;;;3.30;1.70;;;;;;;;;;4934193;29;20024;-37
2022/08/29 09:34:43;;;;;;;4.25;2.63;;;;;;;;;;4932902;29;20038;-43
2022/08/29 09:37:23;;;;;;;4.65;1.85;;;;;;;;;;4935495;29;20487;-40
2022/08/29 09:39:57;;;;;;;5.60;2.22;;;;;;;;;;4935557;29;20046;-38
2022/08/29 09:42:30;;;;;;;2.75;1.90;;;;;;;;;;4935716;29;20114;-41
2022/08/29 09:45:01;;;;;;;3.97;1.83;;;;;;;;;;4934295;29;20047;-37
2022/08/29 09:47:31;;;;;;;6.47;2.00;;;;;;;;;;4935249;29;20054;-45
2022/08/29 09:50:20;;;;;;;8.50;2.10;;;;;;;;;;4935611;29;20403;-40
2022/08/29 09:52:58;;;;;;;2.75;2.03;;;;;;;;;;4934805;29;20067;-39
2022/08/29 09:55:34;;;;;;;3.83;1.85;;;;;;;;;;4934183;29;20432;-44
2022/08/29 09:58:01;;;;;;;3.33;2.20;;;;;;;;;;4935150;29;20361;-44
2022/08/29 10:00:39;;;;;;;6.22;2.40;;;;;;;;;;4934063;29;20039;-38
2022/08/29 10:03:08;;;;;;;6.60;2.30;;;;;;;;;;4933391;29;20075;-43
2022/08/29 10:05:43;;;;;;;5.97;2.10;;;;;;;;;;4935153;29;20032;-42
2022/08/29 10:08:34;;;;;;;3.63;1.95;;;;;;;;;;4935264;29;20055;-39
2022/08/29 10:11:05;;;;;;;5.10;2.40;;;;;;;;;;4935434;29;20038;-45
2022/08/29 10:13:32;;;;;;;3.03;1.85;;;;;;;;;;4934950;29;20468;-39
2022/08/29 10:16:19;;;;;;;2.03;1.90;;;;;;;;;;4934969;29;20043;-43
2022/08/29 10:18:51;;;;;;;6.57;1.80;;;;;;;;;;4934970;29;20035;-45
2022/08/29 10:21:38;;;;;;;2.00;1.80;;;;;;;;;;4929645;29;20082;-38
2022/08/29 10:24:31;;;;;;;3.33;1.92;;;;;;;;;;4914434;29;20388;-40
2022/08/29 10:27:31;;;;;;;1.63;1.52;;;;;;;;;;4914828;29;20040;-41
2022/08/29 10:30:00;;;;;;;7.28;1.77;;;;;;;;;;4914452;29;20040;-46
2022/08/29 10:32:40;;;;;;;5.07;2.10;;;;;;;;;;4917734;29;20103;-45
2022/08/29 10:35:26;;;;;;;4.50;1.85;;;;;;;;;;4918049;29;20055;-48
2022/08/29 10:37:54;;;;;;;6.80;2.05;;;;;;;;;;4916885;29;20063;-47
2022/08/29 10:40:23;;;;;;;3.58;1.95;;;;;;;;;;4918216;29;20434;-43
2022/08/29 10:42:52;;;;;;;4.40;2.10;;;;;;;;;;4918033;29;20142;-45
2022/08/29 10:45:52;;;;;;;;;;;;;;;;;;4918406;29;20271;-49
2022/08/29 10:48:24;;;;;;;3.17;1.95;;;;;;;;;;4859138;29;20266;-43
2022/08/29 10:50:49;;;;;;;2.53;1.92;;;;;;;;;;4907846;29;20040;-42
2022/08/29 10:53:21;;;;;;;5.90;2.00;;;;;;;;;;4917765;29;20030;-47
2022/08/29 10:55:57;;;;;;;3.72;1.92;;;;;;;;;;4917976;29;20059;-43
2022/08/29 10:58:48;;;;;;;4.38;1.85;;;;;;;;;;4931032;29;20047;-41
2022/08/29 11:01:23;;;;;;;4.03;1.92;;;;;;;;;;4936651;29;20031;-45
2022/08/29 11:04:04;;;;;;;4.50;2.03;;;;;;;;;;4935812;29;20036;-42
2022/08/29 11:06:46;;;;;;;6.57;2.00;;;;;;;;;;4933581;29;20059;-47
2022/08/29 11:09:32;;;;;;;2.17;1.92;;;;;;;;;;4933835;29;20055;-43
2022/08/29 11:12:40;;;;;;;5.32;1.90;;;;;;;;;;4934787;29;20028;-43
2022/08/29 11:15:36;;;;;;;2.65;1.80;;;;;;;;;;4933589;29;20058;-45
2022/08/29 11:18:34;;;;;;;6.05;1.90;;;;;;;;;;4935175;29;20444;-46
2022/08/29 11:21:12;;;;;;;3.42;1.95;;;;;;;;;;4935477;29;20119;-42
2022/08/29 11:23:40;;;;;;;4.55;1.70;;;;;;;;;;4933803;29;20079;-45
2022/08/29 11:26:20;;;;;;;2.03;1.77;;;;;;;;;;4933881;29;20123;-44
2022/08/29 11:29:20;;;;;;;2.92;1.80;;;;;;;;;;4935706;29;20027;-41
2022/08/29 11:32:05;;;;;;;1.95;1.80;;;;;;;;;;4934767;29;20467;-42
2022/08/29 11:34:38;;;;;;;2.42;1.90;;;;;;;;;;4934057;29;20032;-38
2022/08/29 11:37:16;;;;;;;3.15;1.70;;;;;;;;;;4933877;29;20345;-44
2022/08/29 11:40:11;;;;;;;3.17;1.90;;;;;;;;;;4935280;29;20481;-44
2022/08/29 11:42:41;;;;;;;2.60;1.90;;;;;;;;;;4916035;29;20484;-44
2022/08/29 11:45:12;;;;;;;5.13;2.10;;;;;;;;;;4936028;29;20024;-45
2022/08/29 11:47:46;;;;;;;4.90;1.80;;;;;;;;;;4938755;29;20070;-42
2022/08/29 11:50:15;;;;;;;7.53;2.08;;;;;;;;;;4945547;29;20087;-41
2022/08/29 11:52:55;;;;;;;4.25;1.80;;;;;;;;;;4948336;29;20360;-41
2022/08/29 11:55:23;;;;;;;4.03;1.60;;;;;;;;;;4943912;29;20086;-42
2022/08/29 11:57:52;;;;;;;2.40;1.80;;;;;;;;;;4939684;29;20036;-38
2022/08/29 12:00:26;;;;;;;;;;;;;;;;;;4935798;29;20023;-40
2022/08/29 12:02:51;;;;;;;2.92;1.70;;;;;;;;;;4946348;29;19918;-38
2022/08/29 12:05:17;;;;;;;3.40;2.15;;;;;;;;;;4951517;29;20034;-38
2022/08/29 12:08:00;;;;;;;4.18;1.80;;;;;;;;;;4954602;29;20031;-38
2022/08/29 12:10:32;;;;;;;1.70;1.50;;;;;;;;;;4951884;29;20040;-39
2022/08/29 12:13:03;;;;;;;11.40;2.17;;;;;;;;;;4940770;29;20543;-41
2022/08/29 12:15:31;;;;;;;1.90;1.80;;;;;;;;;;4943329;29;20110;-41
2022/08/29 12:18:14;;;;;;;3.70;1.80;;;;;;;;;;4940002;29;20034;-40
2022/08/29 12:20:45;;;;;;;3.33;2.50;;;;;;;;;;4941412;29;20387;-39
2022/08/29 12:23:13;;;;;;;7.93;2.28;;;;;;;;;;4944330;29;20471;-41
2022/08/29 12:25:53;;;;;;;4.50;2.47;;;;;;;;;;4942477;29;20536;-43
2022/08/29 12:28:30;;;;;;;2.63;1.90;;;;;;;;;;4924997;29;20041;-44
2022/08/29 12:31:20;;;;;;;9.13;2.35;;;;;;;;;;4937630;29;20428;-42
2022/08/29 12:34:00;;;;;;;2.35;1.70;;;;;;;;;;4937313;29;20127;-44
2022/08/29 12:36:57;;;;;;;5.70;2.30;;;;;;;;;;4941763;29;20490;-40
2022/08/29 12:39:31;;;;;;;3.15;1.90;;;;;;;;;;4942689;29;20032;-41
2022/08/29 12:42:18;;;;;;;5.65;2.70;;;;;;;;;;4944705;29;20122;-40
2022/08/29 12:44:47;;;;;;;9.88;3.85;;;;;;;;;;4943851;29;20031;-47
2022/08/29 12:47:36;;;;;;;8.65;2.97;;;;;;;;;;4942925;29;20052;-44
2022/08/29 12:50:21;;;;;;;6.05;2.50;;;;;;;;;;4943362;29;20475;-39
2022/08/29 12:52:59;;;;;;;3.42;2.13;;;;;;;;;;4939836;29;20023;-43
2022/08/29 12:55:30;;;;;;;5.38;2.28;;;;;;;;;;4949083;29;20066;-42
2022/08/29 12:57:57;;;;;;;3.20;1.80;;;;;;;;;;4937146;29;20039;-49
2022/08/29 13:00:29;;;;;;;2.63;2.00;;;;;;;;;;4953777;29;20115;-43
2022/08/29 13:02:58;;;;;;;5.00;2.00;;;;;;;;;;4953849;29;20039;-40
2022/08/29 13:05:26;;;;;;;2.22;1.95;;;;;;;;;;4953290;29;20035;-39
2022/08/29 13:08:19;;;;;;;2.90;2.20;;;;;;;;;;4941994;29;20499;-40
2022/08/29 13:10:54;;;;;;;4.65;2.20;;;;;;;;;;4935723;29;20054;-43
2022/08/29 13:13:22;;;;;;;3.72;1.98;;;;;;;;;;4927810;29;20102;-40
2022/08/29 13:15:50;;;;;;;2.40;2.20;;;;;;;;;;4950310;29;20035;-41
2022/08/29 13:18:16;;;;;;;2.47;2.28;;;;;;;;;;4922066;29;20031;-39
2022/08/29 13:20:47;;;;;;;5.25;2.10;;;;;;;;;;4919573;29;20491;-41
2022/08/29 13:23:16;;;;;;;6.07;3.42;;;;;;;;;;4939308;29;20436;-42
2022/08/29 13:25:54;;;;;;;13.82;5.03;;;;;;;;;;4917011;29;20038;-39
2022/08/29 13:28:44;;;;;;;4.68;3.10;;;;;;;;;;4933922;29;20030;-39
2022/08/29 13:31:10;;;;;;;5.05;2.70;;;;;;;;;;4933411;29;20043;-44
2022/08/29 13:33:56;;;;;;;7.30;2.35;;;;;;;;;;4940375;29;20397;-38
2022/08/29 13:36:43;;;;;;;31.48;4.43;;;;;;;;;;4937018;29;20042;-39
2022/08/29 13:39:24;;;;;;;9.32;5.15;;;;;;;;;;4934061;29;20036;-39
2022/08/29 13:42:01;;;;;;;4.22;3.33;;;;;;;;;;4934048;29;20048;-40
2022/08/29 13:44:28;;;;;;;6.25;2.88;;;;;;;;;;4933633;29;20027;-39
2022/08/29 13:46:58;;;;;;;8.40;3.30;;;;;;;;;;4933474;29;20068;-41
2022/08/29 13:49:35;;;;;;;13.98;4.82;;;;;;;;;;4933760;29;20436;-39
2022/08/29 13:52:01;;;;;;;7.28;3.53;;;;;;;;;;4933448;29;20046;-41
2022/08/29 13:54:31;;;;;;;6.97;2.85;;;;;;;;;;4933373;29;20034;-44
2022/08/29 13:56:58;;;;;;;5.15;2.60;;;;;;;;;;4929767;29;20062;-39
2022/08/29 13:59:26;;;;;;;4.20;2.80;;;;;;;;;;4933347;29;20094;-38
2022/08/29 14:01:53;;;;;;;4.77;3.17;;;;;;;;;;4933208;29;20032;-39
2022/08/29 14:04:19;;;;;;;4.43;2.75;;;;;;;;;;4942894;29;20067;-37
2022/08/29 14:06:45;;;;;;;4.18;2.70;;;;;;;;;;4935150;28;20035;-38
2022/08/29 14:09:17;;;;;;;5.30;2.42;;;;;;;;;;4933280;29;20038;-43
2022/08/29 14:11:43;;;;;;;3.80;2.30;;;;;;;;;;4933550;29;20035;-38
2022/08/29 14:14:08;;;;;;;6.78;2.38;;;;;;;;;;4931832;29;20039;-39
2022/08/29 14:16:34;;;;;;;4.53;2.53;;;;;;;;;;4933384;29;20040;-41
2022/08/29 14:18:59;;;;;;;6.97;2.40;;;;;;;;;;4933439;29;20034;-42
2022/08/29 14:21:26;;;;;;;3.65;2.90;;;;;;;;;;4933511;29;20106;-38
2022/08/29 14:23:52;;;;;;;5.70;2.20;;;;;;;;;;4932442;29;20043;-38
2022/08/29 14:26:18;;;;;;;2.00;1.90;;;;;;;;;;4933301;29;20039;-43
2022/08/29 14:28:44;;;;;;;2.67;2.10;;;;;;;;;;4933385;29;20031;-44
2022/08/29 14:31:09;;;;;;;3.55;2.05;;;;;;;;;;4933392;29;20032;-38
2022/08/29 14:33:35;;;;;;;4.55;2.47;;;;;;;;;;4933234;29;20032;-41
2022/08/29 14:36:01;;;;;;;2.45;2.17;;;;;;;;;;4931790;29;20113;-41
2022/08/29 14:38:26;;;;;;;7.65;2.50;;;;;;;;;;4933094;29;20063;-40
2022/08/29 14:40:52;;;;;;;5.45;2.50;;;;;;;;;;4932953;29;20067;-39
2022/08/29 14:43:17;;;;;;;5.95;2.58;;;;;;;;;;4933129;29;20028;-39
2022/08/29 14:45:43;;;;;;;4.80;2.40;;;;;;;;;;4933228;29;20055;-46
2022/08/29 14:48:08;;;;;;;3.80;2.70;;;;;;;;;;4933141;29;20060;-40
2022/08/29 14:50:34;;;;;;;5.47;2.65;;;;;;;;;;4932250;29;20531;-45
2022/08/29 14:53:00;;;;;;;5.47;2.67;;;;;;;;;;4933159;29;20036;-46
2022/08/29 14:55:25;;;;;;;5.85;2.38;;;;;;;;;;4932913;29;20032;-42
2022/08/29 14:57:51;;;;;;;9.30;2.78;;;;;;;;;;4932923;29;20038;-38